createdAt,value
2023-03-16T00:00:19.823Z,9.242375
2023-03-16T00:01:19.795Z,9.242484
2023-03-16T00:02:19.930Z,9.242470
2023-03-16T00:03:19.814Z,9.242455
2023-03-16T00:04:19.801Z,9.242427
2023-03-16T00:05:19.783Z,9.242427
2023-03-16T00:06:19.765Z,9.242452
2023-03-16T00:07:19.751Z,9.242448
2023-03-16T00:08:19.821Z,9.242509
2023-03-16T00:09:19.763Z,9.242428
2023-03-16T00:10:19.741Z,9.242396
2023-03-16T00:11:19.738Z,9.242472
2023-03-16T00:12:19.731Z,9.242420
2023-03-16T00:13:19.775Z,9.242470
2023-03-16T00:14:19.735Z,9.242424
2023-03-16T00:15:19.699Z,9.242463
2023-03-16T00:16:19.787Z,9.242454
2023-03-16T00:17:19.881Z,9.242462
2023-03-16T00:18:19.682Z,9.242448
2023-03-16T00:19:19.707Z,9.242455
2023-03-16T00:20:19.688Z,9.242442
2023-03-16T00:21:19.658Z,9.242433
2023-03-16T00:22:19.668Z,9.242415
2023-03-16T00:23:19.658Z,9.242450
2023-03-16T00:24:19.723Z,9.242498
2023-03-16T00:25:19.676Z,9.242517
2023-03-16T00:26:19.659Z,9.242419
2023-03-16T00:27:19.646Z,9.242450
2023-03-16T00:28:19.644Z,9.242404
2023-03-16T00:29:19.642Z,9.242452
2023-03-16T00:30:19.616Z,9.242477
2023-03-16T00:31:19.641Z,9.242433
2023-03-16T00:32:19.609Z,9.242461
2023-03-16T00:33:19.623Z,9.242452
2023-03-16T00:34:19.617Z,9.242449
2023-03-16T00:35:19.578Z,9.242435
2023-03-16T00:36:19.598Z,9.242427
2023-03-16T00:37:19.648Z,9.242455
2023-03-16T00:38:19.573Z,9.242415
2023-03-16T00:39:19.584Z,9.242448
2023-03-16T00:40:19.572Z,9.242416
2023-03-16T00:41:19.550Z,9.242414
2023-03-16T00:42:19.597Z,9.242346
2023-03-16T00:43:19.532Z,9.242376
2023-03-16T00:44:19.532Z,9.242427
2023-03-16T00:45:19.567Z,9.242447
2023-03-16T00:46:19.642Z,9.242351
2023-03-16T00:47:19.513Z,9.242415
2023-03-16T00:48:19.553Z,9.242396
2023-03-16T00:49:19.510Z,9.242472
2023-03-16T00:50:19.547Z,9.242455
2023-03-16T00:51:19.517Z,9.242417
2023-03-16T00:52:19.507Z,9.242398
2023-03-16T00:53:19.490Z,9.242379
2023-03-16T00:54:19.504Z,9.242354
2023-03-16T00:55:19.471Z,9.242390
2023-03-16T00:56:19.485Z,9.242405
2023-03-16T00:57:19.455Z,9.242338
2023-03-16T00:58:19.464Z,9.242390
2023-03-16T00:59:19.473Z,9.242382
2023-03-16T01:00:19.445Z,9.242420
2023-03-16T01:01:19.497Z,9.242385
2023-03-16T01:02:19.436Z,9.242386
2023-03-16T01:03:19.434Z,9.242370
2023-03-16T01:04:19.402Z,9.242383
2023-03-16T01:05:19.413Z,9.242423
2023-03-16T01:06:19.428Z,9.242387
2023-03-16T01:07:19.426Z,9.242375
2023-03-16T01:08:19.363Z,9.242428
2023-03-16T01:09:19.386Z,9.242418
2023-03-16T01:10:19.966Z,9.242508
2023-03-16T01:11:19.374Z,9.242399
2023-03-16T01:12:19.335Z,9.242526
2023-03-16T01:13:19.389Z,9.242395
2023-03-16T01:14:19.410Z,9.242440
2023-03-16T01:15:19.321Z,9.242453
2023-03-16T01:16:19.444Z,9.242386
2023-03-16T01:17:19.340Z,9.242401
2023-03-16T01:18:19.371Z,9.242475
2023-03-16T01:19:19.334Z,9.242356
2023-03-16T01:20:19.397Z,9.242386
2023-03-16T01:21:19.331Z,9.242421
2023-03-16T01:22:19.310Z,9.242407
2023-03-16T01:23:19.345Z,9.242443
2023-03-16T01:24:19.333Z,9.242475
2023-03-16T01:25:19.307Z,9.242418
2023-03-16T01:26:19.271Z,9.242378
2023-03-16T01:27:19.266Z,9.242372
2023-03-16T01:28:19.232Z,9.242410
2023-03-16T01:29:19.264Z,9.242389
2023-03-16T01:30:19.256Z,9.242424
2023-03-16T01:31:19.540Z,9.242439
2023-03-16T01:32:19.888Z,9.242419
2023-03-16T01:33:19.198Z,9.242394
2023-03-16T01:34:19.366Z,9.242484
2023-03-16T01:35:19.210Z,9.242494
2023-03-16T01:36:19.214Z,9.242409
2023-03-16T01:37:19.179Z,9.242402
2023-03-16T01:38:19.170Z,9.242314
2023-03-16T01:39:19.176Z,9.242399
2023-03-16T01:40:19.174Z,9.242425
2023-03-16T01:41:19.149Z,9.242365
2023-03-16T01:42:19.149Z,9.242427
2023-03-16T01:43:19.170Z,9.242490
2023-03-16T01:44:19.130Z,9.242340
2023-03-16T01:45:19.148Z,9.242435
2023-03-16T01:46:19.190Z,9.242405
2023-03-16T01:47:19.124Z,9.242348
2023-03-16T01:48:19.118Z,9.242319
2023-03-16T01:49:19.097Z,9.242326
2023-03-16T01:50:19.110Z,9.242465
2023-03-16T01:51:19.094Z,9.242439
2023-03-16T01:52:19.082Z,9.242440
2023-03-16T01:53:20.085Z,9.242336
2023-03-16T01:54:19.079Z,9.242311
2023-03-16T01:55:19.074Z,9.242206
2023-03-16T01:56:19.058Z,9.242326
2023-03-16T01:57:19.053Z,9.242152
2023-03-16T01:58:19.051Z,9.242058
2023-03-16T01:59:19.039Z,9.242039
2023-03-16T02:00:19.063Z,9.242047
2023-03-16T02:01:19.076Z,9.242010
2023-03-16T02:02:19.024Z,9.241796
2023-03-16T02:03:19.011Z,9.242116
2023-03-16T02:04:19.050Z,9.242304
2023-03-16T02:05:19.014Z,9.242296
2023-03-16T02:06:19.013Z,9.242367
2023-03-16T02:07:18.987Z,9.242459
2023-03-16T02:08:18.976Z,9.242460
2023-03-16T02:09:18.970Z,9.242418
2023-03-16T02:10:18.986Z,9.242393
2023-03-16T02:11:18.956Z,9.242329
2023-03-16T02:12:18.983Z,9.242335
2023-03-16T02:13:19.957Z,9.242356
2023-03-16T02:14:18.942Z,9.242450
2023-03-16T02:15:18.953Z,9.242482
2023-03-16T02:16:19.004Z,9.242514
2023-03-16T02:17:18.939Z,9.242353
2023-03-16T02:18:18.916Z,9.242311
2023-03-16T02:19:18.924Z,9.242373
2023-03-16T02:20:18.920Z,9.242412
2023-03-16T02:21:18.918Z,9.242289
2023-03-16T02:22:18.904Z,9.242442
2023-03-16T02:23:18.890Z,9.242349
2023-03-16T02:24:18.875Z,9.242373
2023-03-16T02:25:18.916Z,9.242493
2023-03-16T02:26:18.876Z,9.242405
2023-03-16T02:27:18.866Z,9.242362
2023-03-16T02:28:18.851Z,9.242358
2023-03-16T02:29:18.857Z,9.242375
2023-03-16T02:30:18.871Z,9.242346
2023-03-16T02:31:18.927Z,9.242353
2023-03-16T02:32:18.872Z,9.242423
2023-03-16T02:33:18.824Z,9.242433
2023-03-16T02:34:18.821Z,9.242440
2023-03-16T02:35:18.816Z,9.242454
2023-03-16T02:36:18.813Z,9.242362
2023-03-16T02:37:18.817Z,9.242415
2023-03-16T02:38:18.795Z,9.242394
2023-03-16T02:39:18.795Z,9.242416
2023-03-16T02:40:18.799Z,9.242375
2023-03-16T02:41:18.782Z,9.242361
2023-03-16T02:42:18.774Z,9.242390
2023-03-16T02:43:18.779Z,9.242396
2023-03-16T02:44:18.776Z,9.242352
2023-03-16T02:45:18.765Z,9.242328
2023-03-16T02:46:18.769Z,9.242372
2023-03-16T02:47:18.724Z,9.242368
2023-03-16T02:48:18.728Z,9.242325
2023-03-16T02:49:18.720Z,9.242375
2023-03-16T02:50:18.730Z,9.242262
2023-03-16T02:51:18.701Z,9.242314
2023-03-16T02:52:18.721Z,9.242365
2023-03-16T02:53:18.699Z,9.242381
2023-03-16T02:54:18.692Z,9.242356
2023-03-16T02:55:18.697Z,9.242371
2023-03-16T02:56:18.679Z,9.242375
2023-03-16T02:57:18.677Z,9.242395
2023-03-16T02:58:18.660Z,9.242388
2023-03-16T02:59:18.664Z,9.242376
2023-03-16T03:00:18.684Z,9.242382
2023-03-16T03:01:18.645Z,9.242347
2023-03-16T03:02:18.641Z,9.242307
2023-03-16T03:03:18.664Z,9.242423
2023-03-16T03:04:18.624Z,9.242392
2023-03-16T03:05:18.645Z,9.242382
2023-03-16T03:06:18.612Z,9.242389
2023-03-16T03:07:18.613Z,9.242422
2023-03-16T03:08:18.605Z,9.242416
2023-03-16T03:09:18.601Z,9.242419
2023-03-16T03:10:18.647Z,9.242446
2023-03-16T03:11:18.581Z,9.242452
2023-03-16T03:12:18.572Z,9.242478
2023-03-16T03:13:18.568Z,9.242476
2023-03-16T03:14:18.555Z,9.242454
2023-03-16T03:15:18.593Z,9.242399
2023-03-16T03:16:18.664Z,9.242373
2023-03-16T03:17:18.545Z,9.242423
2023-03-16T03:18:18.539Z,9.242454
2023-03-16T03:19:18.531Z,9.242467
2023-03-16T03:20:18.536Z,9.242448
2023-03-16T03:21:18.518Z,9.242382
2023-03-16T03:22:18.526Z,9.242411
2023-03-16T03:23:18.514Z,9.242477
2023-03-16T03:24:18.505Z,9.242487
2023-03-16T03:25:18.683Z,9.242518
2023-03-16T03:26:18.485Z,9.242511
2023-03-16T03:27:18.487Z,9.242509
2023-03-16T03:28:18.471Z,9.242476
2023-03-16T03:29:18.546Z,9.242459
2023-03-16T03:30:18.502Z,9.242406
2023-03-16T03:31:18.468Z,9.242277
2023-03-16T03:32:18.448Z,9.242249
2023-03-16T03:33:18.435Z,9.242425
2023-03-16T03:34:18.438Z,9.242469
2023-03-16T03:35:18.448Z,9.242492
2023-03-16T03:36:18.429Z,9.242423
2023-03-16T03:37:18.409Z,9.242407
2023-03-16T03:38:18.399Z,9.242496
2023-03-16T03:39:18.394Z,9.242344
2023-03-16T03:40:18.413Z,9.242332
2023-03-16T03:41:18.385Z,9.242397
2023-03-16T03:42:18.395Z,9.242483
2023-03-16T03:43:18.367Z,9.242544
2023-03-16T03:44:18.367Z,9.242480
2023-03-16T03:45:18.400Z,9.242543
2023-03-16T03:46:18.537Z,9.242417
2023-03-16T03:47:18.353Z,9.242442
2023-03-16T03:48:18.340Z,9.242443
2023-03-16T03:49:18.333Z,9.242442
2023-03-16T03:50:18.353Z,9.242435
2023-03-16T03:51:18.334Z,9.242440
2023-03-16T03:52:18.312Z,9.242441
2023-03-16T03:53:18.315Z,9.242443
2023-03-16T03:54:18.303Z,9.242349
2023-03-16T03:55:18.312Z,9.242408
2023-03-16T03:56:18.320Z,9.242419
2023-03-16T03:57:20.293Z,9.242345
2023-03-16T03:58:18.361Z,9.242500
2023-03-16T03:59:19.269Z,9.242499
2023-03-16T04:00:18.332Z,9.242476
2023-03-16T04:01:18.314Z,9.242453
2023-03-16T04:02:18.469Z,9.242467
2023-03-16T04:03:18.392Z,9.242497
2023-03-16T04:04:18.286Z,9.242463
2023-03-16T04:05:18.268Z,9.242435
2023-03-16T04:06:18.284Z,9.242455
2023-03-16T04:07:18.223Z,9.242502
2023-03-16T04:08:18.243Z,9.242349
2023-03-16T04:09:18.233Z,9.242399
2023-03-16T04:10:18.265Z,9.242396
2023-03-16T04:11:18.238Z,9.242451
2023-03-16T04:12:18.197Z,9.242413
2023-03-16T04:13:18.233Z,9.242313
2023-03-16T04:14:18.180Z,9.242390
2023-03-16T04:15:18.220Z,9.242380
2023-03-16T04:16:18.207Z,9.242421
2023-03-16T04:17:18.179Z,9.242607
2023-03-16T04:18:19.155Z,9.242498
2023-03-16T04:19:18.152Z,9.242389
2023-03-16T04:20:18.161Z,9.242517
2023-03-16T04:21:18.132Z,9.242386
2023-03-16T04:22:18.123Z,9.242510
2023-03-16T04:23:18.122Z,9.242600
2023-03-16T04:24:18.114Z,9.242506
2023-03-16T04:25:18.107Z,9.242392
2023-03-16T04:26:18.105Z,9.242335
2023-03-16T04:27:18.091Z,9.242414
2023-03-16T04:28:18.173Z,9.242547
2023-03-16T04:29:18.140Z,9.242330
2023-03-16T04:30:18.079Z,9.242352
2023-03-16T04:31:18.100Z,9.242531
2023-03-16T04:32:18.044Z,9.242411
2023-03-16T04:33:18.093Z,9.242367
2023-03-16T04:34:18.035Z,9.242358
2023-03-16T04:35:18.036Z,9.242374
2023-03-16T04:36:18.047Z,9.242379
2023-03-16T04:37:18.030Z,9.242305
2023-03-16T04:38:18.013Z,9.242431
2023-03-16T04:39:18.005Z,9.242396
2023-03-16T04:40:17.997Z,9.242363
2023-03-16T04:41:18.010Z,9.242333
2023-03-16T04:42:17.989Z,9.242361
2023-03-16T04:43:17.979Z,9.242310
2023-03-16T04:44:17.978Z,9.242399
2023-03-16T04:45:17.975Z,9.242323
2023-03-16T04:46:17.998Z,9.242357
2023-03-16T04:47:17.960Z,9.242402
2023-03-16T04:48:17.946Z,9.242352
2023-03-16T04:49:17.937Z,9.242342
2023-03-16T04:50:17.936Z,9.242329
2023-03-16T04:51:17.950Z,9.242291
2023-03-16T04:52:17.932Z,9.242280
2023-03-16T04:53:17.914Z,9.242305
2023-03-16T04:54:17.909Z,9.242297
2023-03-16T04:55:17.905Z,9.242332
2023-03-16T04:56:17.916Z,9.242293
2023-03-16T04:57:17.901Z,9.242288
2023-03-16T04:58:17.876Z,9.242308
2023-03-16T04:59:17.883Z,9.242357
2023-03-16T05:00:17.893Z,9.242359
2023-03-16T05:01:17.897Z,9.242291
2023-03-16T05:02:17.856Z,9.242370
2023-03-16T05:03:17.851Z,9.242354
2023-03-16T05:04:19.776Z,9.242357
2023-03-16T05:05:18.957Z,9.242371
2023-03-16T05:06:17.853Z,9.242357
2023-03-16T05:07:17.815Z,9.242343
2023-03-16T05:08:17.816Z,9.242312
2023-03-16T05:09:17.805Z,9.242310
2023-03-16T05:10:17.803Z,9.242336
2023-03-16T05:11:17.800Z,9.242278
2023-03-16T05:12:18.786Z,9.242345
2023-03-16T05:13:17.778Z,9.242333
2023-03-16T05:14:17.780Z,9.242294
2023-03-16T05:15:17.768Z,9.242298
2023-03-16T05:16:17.825Z,9.242335
2023-03-16T05:17:17.753Z,9.242473
2023-03-16T05:18:17.750Z,9.242344
2023-03-16T05:19:17.732Z,9.242417
2023-03-16T05:20:17.753Z,9.242312
2023-03-16T05:21:17.754Z,9.242347
2023-03-16T05:22:17.722Z,9.242383
2023-03-16T05:23:17.713Z,9.242373
2023-03-16T05:24:17.704Z,9.242373
2023-03-16T05:25:17.727Z,9.242348
2023-03-16T05:26:17.698Z,9.242378
2023-03-16T05:27:17.690Z,9.242400
2023-03-16T05:28:17.695Z,9.242394
2023-03-16T05:29:17.689Z,9.242268
2023-03-16T05:30:17.693Z,9.242285
2023-03-16T05:31:17.708Z,9.242273
2023-03-16T05:32:17.672Z,9.242262
2023-03-16T05:33:17.650Z,9.242321
2023-03-16T05:34:17.639Z,9.242311
2023-03-16T05:35:17.647Z,9.242375
2023-03-16T05:36:17.679Z,9.242413
2023-03-16T05:37:17.641Z,9.242390
2023-03-16T05:38:17.624Z,9.242578
2023-03-16T05:39:17.613Z,9.242377
2023-03-16T05:40:17.628Z,9.242408
2023-03-16T05:41:17.613Z,9.242340
2023-03-16T05:42:17.591Z,9.242322
2023-03-16T05:43:17.590Z,9.242285
2023-03-16T05:44:17.586Z,9.242232
2023-03-16T05:45:17.588Z,9.242117
2023-03-16T05:46:20.604Z,9.242297
2023-03-16T05:47:17.572Z,9.242356
2023-03-16T05:48:17.574Z,9.242391
2023-03-16T05:49:17.553Z,9.242394
2023-03-16T05:50:17.602Z,9.242407
2023-03-16T05:51:17.600Z,9.242359
2023-03-16T05:52:17.579Z,9.242450
2023-03-16T05:53:17.560Z,9.242411
2023-03-16T05:54:17.580Z,9.242296
2023-03-16T05:55:17.532Z,9.242312
2023-03-16T05:56:17.544Z,9.242256
2023-03-16T05:57:17.496Z,9.242330
2023-03-16T05:58:17.493Z,9.242436
2023-03-16T05:59:17.519Z,9.242433
2023-03-16T06:00:17.486Z,9.242335
2023-03-16T06:01:17.495Z,9.242392
2023-03-16T06:02:17.474Z,9.242298
2023-03-16T06:03:17.504Z,9.242383
2023-03-16T06:04:17.472Z,9.242490
2023-03-16T06:05:17.446Z,9.242440
2023-03-16T06:06:17.476Z,9.242470
2023-03-16T06:07:17.432Z,9.242451
2023-03-16T06:08:17.435Z,9.242413
2023-03-16T06:09:17.427Z,9.242412
2023-03-16T06:10:17.420Z,9.242350
2023-03-16T06:11:17.428Z,9.242367
2023-03-16T06:12:17.419Z,9.242393
2023-03-16T06:13:17.425Z,9.242397
2023-03-16T06:14:17.409Z,9.242408
2023-03-16T06:15:17.407Z,9.242402
2023-03-16T06:16:17.432Z,9.242394
2023-03-16T06:17:17.393Z,9.242383
2023-03-16T06:18:17.368Z,9.242403
2023-03-16T06:19:17.364Z,9.242418
2023-03-16T06:20:17.392Z,9.242399
2023-03-16T06:21:17.352Z,9.242413
2023-03-16T06:22:17.368Z,9.242409
2023-03-16T06:23:17.336Z,9.242399
2023-03-16T06:24:17.338Z,9.242467
2023-03-16T06:25:17.344Z,9.242431
2023-03-16T06:26:17.315Z,9.242413
2023-03-16T06:27:17.308Z,9.242381
2023-03-16T06:28:17.302Z,9.242259
2023-03-16T06:29:17.300Z,9.242385
2023-03-16T06:30:17.321Z,9.242394
2023-03-16T06:31:17.400Z,9.242415
2023-03-16T06:32:17.282Z,9.242410
2023-03-16T06:33:17.275Z,9.242373
2023-03-16T06:34:17.268Z,9.242424
2023-03-16T06:35:17.279Z,9.242414
2023-03-16T06:36:17.249Z,9.242356
2023-03-16T06:37:17.257Z,9.242410
2023-03-16T06:38:17.252Z,9.242431
2023-03-16T06:39:17.231Z,9.242402
2023-03-16T06:40:17.239Z,9.242364
2023-03-16T06:41:17.241Z,9.242395
2023-03-16T06:42:17.229Z,9.242405
2023-03-16T06:43:17.209Z,9.242427
2023-03-16T06:44:17.219Z,9.242434
2023-03-16T06:45:17.259Z,9.242411
2023-03-16T06:46:17.352Z,9.242416
2023-03-16T06:47:17.192Z,9.242401
2023-03-16T06:48:17.174Z,9.242400
2023-03-16T06:49:17.170Z,9.242401
2023-03-16T06:50:17.169Z,9.242359
2023-03-16T06:51:17.171Z,9.242368
2023-03-16T06:52:17.159Z,9.242388
2023-03-16T06:53:17.143Z,9.242410
2023-03-16T06:54:17.203Z,9.242402
2023-03-16T06:55:17.141Z,9.242462
2023-03-16T06:56:17.152Z,9.242461
2023-03-16T06:57:17.120Z,9.242329
2023-03-16T06:58:17.111Z,9.242304
2023-03-16T06:59:17.111Z,9.242357
2023-03-16T07:00:17.104Z,9.242338
2023-03-16T07:01:17.173Z,9.242299
2023-03-16T07:02:17.115Z,9.242326
2023-03-16T07:03:17.089Z,9.242202
2023-03-16T07:04:17.138Z,9.242171
2023-03-16T07:05:17.072Z,9.242234
2023-03-16T07:06:17.099Z,9.242347
2023-03-16T07:07:17.053Z,9.242242
2023-03-16T07:08:17.057Z,9.242295
2023-03-16T07:09:17.048Z,9.242265
2023-03-16T07:10:17.041Z,9.242317
2023-03-16T07:11:17.055Z,9.242382
2023-03-16T07:12:17.026Z,9.242354
2023-03-16T07:13:17.019Z,9.242295
2023-03-16T07:14:17.009Z,9.242333
2023-03-16T07:15:16.996Z,9.242349
2023-03-16T07:16:17.049Z,9.242300
2023-03-16T07:17:16.986Z,9.242329
2023-03-16T07:18:16.984Z,9.242393
2023-03-16T07:19:16.976Z,9.242270
2023-03-16T07:20:16.992Z,9.242252
2023-03-16T07:21:16.982Z,9.242326
2023-03-16T07:22:16.967Z,9.242253
2023-03-16T07:23:16.947Z,9.242358
2023-03-16T07:24:16.944Z,9.242325
2023-03-16T07:25:16.963Z,9.242365
2023-03-16T07:26:16.996Z,9.242414
2023-03-16T07:27:16.932Z,9.242373
2023-03-16T07:28:16.921Z,9.242368
2023-03-16T07:29:16.922Z,9.242505
2023-03-16T07:30:16.923Z,9.242358
2023-03-16T07:31:16.991Z,9.242414
2023-03-16T07:32:16.893Z,9.242418
2023-03-16T07:33:16.887Z,9.242452
2023-03-16T07:34:16.936Z,9.242443
2023-03-16T07:35:16.877Z,9.242402
2023-03-16T07:36:17.043Z,9.242441
2023-03-16T07:37:18.384Z,9.242382
2023-03-16T07:38:16.870Z,9.242441
2023-03-16T07:39:16.862Z,9.242447
2023-03-16T07:40:16.846Z,9.242389
2023-03-16T07:41:16.891Z,9.242431
2023-03-16T07:42:16.838Z,9.242423
2023-03-16T07:43:16.844Z,9.242424
2023-03-16T07:44:16.834Z,9.242430
2023-03-16T07:45:16.825Z,9.242439
2023-03-16T07:46:16.889Z,9.242415
2023-03-16T07:47:16.822Z,9.242375
2023-03-16T07:48:16.790Z,9.242391
2023-03-16T07:49:16.864Z,9.242410
2023-03-16T07:50:16.811Z,9.242421
2023-03-16T07:51:16.798Z,9.242386
2023-03-16T07:52:16.824Z,9.242383
2023-03-16T07:53:16.771Z,9.242407
2023-03-16T07:54:16.775Z,9.242428
2023-03-16T07:55:16.776Z,9.242427
2023-03-16T07:56:16.751Z,9.242435
2023-03-16T07:57:16.772Z,9.242437
2023-03-16T07:58:16.739Z,9.242442
2023-03-16T07:59:16.738Z,9.242414
2023-03-16T08:00:16.730Z,9.242435
2023-03-16T08:01:16.742Z,9.242416
2023-03-16T08:02:16.766Z,9.242392
2023-03-16T08:03:16.764Z,9.242428
2023-03-16T08:04:16.706Z,9.242374
2023-03-16T08:05:16.694Z,9.242435
2023-03-16T08:06:16.713Z,9.242455
2023-03-16T08:07:16.705Z,9.242375
2023-03-16T08:08:16.673Z,9.242462
2023-03-16T08:09:16.668Z,9.242429
2023-03-16T08:10:16.666Z,9.242432
2023-03-16T08:11:16.651Z,9.242395
2023-03-16T08:12:16.688Z,9.242405
2023-03-16T08:13:16.644Z,9.242387
2023-03-16T08:14:16.635Z,9.242373
2023-03-16T08:15:16.639Z,9.242413
2023-03-16T08:16:16.713Z,9.242413
2023-03-16T08:17:16.627Z,9.242429
2023-03-16T08:18:16.610Z,9.242417
2023-03-16T08:19:16.601Z,9.242391
2023-03-16T08:20:16.593Z,9.242402
2023-03-16T08:21:17.602Z,9.242439
2023-03-16T08:22:16.597Z,9.242425
2023-03-16T08:23:16.576Z,9.242412
2023-03-16T08:24:16.560Z,9.242376
2023-03-16T08:25:16.557Z,9.242397
2023-03-16T08:26:16.548Z,9.242432
2023-03-16T08:27:16.563Z,9.242455
2023-03-16T08:28:16.535Z,9.242395
2023-03-16T08:29:16.549Z,9.242432
2023-03-16T08:30:16.521Z,9.242435
2023-03-16T08:31:16.561Z,9.242424
2023-03-16T08:32:16.544Z,9.242428
2023-03-16T08:33:16.500Z,9.242406
2023-03-16T08:34:16.498Z,9.242292
2023-03-16T08:35:16.490Z,9.242347
2023-03-16T08:36:16.516Z,9.242397
2023-03-16T08:37:16.528Z,9.242407
2023-03-16T08:38:16.475Z,9.242427
2023-03-16T08:39:16.476Z,9.242449
2023-03-16T08:40:16.490Z,9.242431
2023-03-16T08:41:16.465Z,9.242417
2023-03-16T08:42:16.466Z,9.242373
2023-03-16T08:43:16.438Z,9.242409
2023-03-16T08:44:16.440Z,9.242373
2023-03-16T08:45:16.430Z,9.242393
2023-03-16T08:46:16.500Z,9.242447
2023-03-16T08:47:16.425Z,9.242443
2023-03-16T08:48:16.406Z,9.242434
2023-03-16T08:49:16.405Z,9.242447
2023-03-16T08:50:16.390Z,9.242354
2023-03-16T08:51:16.374Z,9.242306
2023-03-16T08:52:16.436Z,9.242367
2023-03-16T08:53:16.370Z,9.242472
2023-03-16T08:54:16.408Z,9.242415
2023-03-16T08:55:16.355Z,9.242385
2023-03-16T08:56:16.345Z,9.242473
2023-03-16T08:57:16.349Z,9.242387
2023-03-16T08:58:16.398Z,9.242419
2023-03-16T08:59:27.320Z,9.242418
2023-03-16T09:00:18.320Z,9.242448
2023-03-16T09:01:16.309Z,9.242390
2023-03-16T09:02:16.381Z,9.242393
2023-03-16T09:03:16.289Z,9.242435
2023-03-16T09:04:16.293Z,9.242429
2023-03-16T09:05:16.280Z,9.242329
2023-03-16T09:06:16.288Z,9.242453
2023-03-16T09:07:16.276Z,9.242418
2023-03-16T09:08:16.266Z,9.242670
2023-03-16T09:09:16.252Z,9.242441
2023-03-16T09:10:16.525Z,9.242320
2023-03-16T09:11:16.253Z,9.242361
2023-03-16T09:12:16.243Z,9.242424
2023-03-16T09:13:16.234Z,9.242444
2023-03-16T09:14:16.223Z,9.242410
2023-03-16T09:15:16.204Z,9.242313
2023-03-16T09:16:16.248Z,9.242296
2023-03-16T09:17:16.219Z,9.242346
2023-03-16T09:18:16.196Z,9.242386
2023-03-16T09:19:16.190Z,9.242354
2023-03-16T09:20:26.798Z,9.242383
2023-03-16T09:21:18.176Z,9.242419
2023-03-16T09:22:17.179Z,9.242299
2023-03-16T09:23:16.164Z,9.242422
2023-03-16T09:24:16.181Z,9.242353
2023-03-16T09:25:16.150Z,9.242334
2023-03-16T09:26:16.126Z,9.242333
2023-03-16T09:27:16.247Z,9.242373
2023-03-16T09:28:16.117Z,9.242397
2023-03-16T09:29:16.129Z,9.242376
2023-03-16T09:30:16.116Z,9.242347
2023-03-16T09:31:16.873Z,9.242330
2023-03-16T09:32:16.114Z,9.242341
2023-03-16T09:33:16.126Z,9.242312
2023-03-16T09:34:16.083Z,9.242324
2023-03-16T09:35:16.092Z,9.242353
2023-03-16T09:36:16.132Z,9.242385
2023-03-16T09:37:16.061Z,9.242344
2023-03-16T09:38:16.091Z,9.242361
2023-03-16T09:39:16.050Z,9.242311
2023-03-16T09:40:16.053Z,9.242372
2023-03-16T09:41:16.041Z,9.242317
2023-03-16T09:42:16.062Z,9.242277
2023-03-16T09:43:16.058Z,9.242327
2023-03-16T09:44:16.039Z,9.242311
2023-03-16T09:45:16.055Z,9.242320
2023-03-16T09:46:16.122Z,9.242361
2023-03-16T09:47:16.023Z,9.242279
2023-03-16T09:48:15.987Z,9.242337
2023-03-16T09:49:16.015Z,9.242271
2023-03-16T09:50:16.021Z,9.242333
2023-03-16T09:51:16.008Z,9.242280
2023-03-16T09:52:15.995Z,9.242241
2023-03-16T09:53:15.969Z,9.242362
2023-03-16T09:54:15.952Z,9.242332
2023-03-16T09:55:15.945Z,9.242373
2023-03-16T09:56:15.954Z,9.242280
2023-03-16T09:57:15.965Z,9.242233
2023-03-16T09:58:15.934Z,9.242287
2023-03-16T09:59:15.925Z,9.242117
2023-03-16T10:00:15.930Z,9.242209
2023-03-16T10:01:16.018Z,9.242188
2023-03-16T10:02:15.909Z,9.242245
2023-03-16T10:03:15.908Z,9.242300
2023-03-16T10:04:15.927Z,9.242310
2023-03-16T10:05:15.881Z,9.242337
2023-03-16T10:06:15.869Z,9.242293
2023-03-16T10:07:15.866Z,9.242315
2023-03-16T10:08:15.888Z,9.242373
2023-03-16T10:09:15.849Z,9.242271
2023-03-16T10:10:15.841Z,9.242391
2023-03-16T10:11:15.835Z,9.242324
2023-03-16T10:12:15.849Z,9.242296
2023-03-16T10:13:15.838Z,9.242285
2023-03-16T10:14:15.818Z,9.242281
2023-03-16T10:15:15.843Z,9.242454
2023-03-16T10:16:15.818Z,9.242371
2023-03-16T10:17:15.795Z,9.242373
2023-03-16T10:18:15.803Z,9.242446
2023-03-16T10:19:15.776Z,9.242421
2023-03-16T10:20:15.778Z,9.242322
2023-03-16T10:21:15.758Z,9.242347
2023-03-16T10:22:15.755Z,9.242362
2023-03-16T10:23:15.779Z,9.242259
2023-03-16T10:24:15.749Z,9.242307
2023-03-16T10:25:15.761Z,9.242315
2023-03-16T10:26:15.727Z,9.242330
2023-03-16T10:27:15.730Z,9.242314
2023-03-16T10:28:15.738Z,9.242325
2023-03-16T10:29:15.829Z,9.242278
2023-03-16T10:30:15.705Z,9.242236
2023-03-16T10:31:15.718Z,9.242272
2023-03-16T10:32:15.695Z,9.242268
2023-03-16T10:33:16.200Z,9.242243
2023-03-16T10:34:15.686Z,9.242253
2023-03-16T10:35:15.682Z,9.242260
2023-03-16T10:36:15.798Z,9.242273
2023-03-16T10:37:15.670Z,9.242201
2023-03-16T10:38:15.701Z,9.242210
2023-03-16T10:39:15.654Z,9.242215
2023-03-16T10:40:15.653Z,9.242218
2023-03-16T10:41:15.633Z,9.242213
2023-03-16T10:42:15.631Z,9.242224
2023-03-16T10:43:15.653Z,9.242180
2023-03-16T10:44:15.628Z,9.242291
2023-03-16T10:45:15.624Z,9.242369
2023-03-16T10:46:15.666Z,9.242357
2023-03-16T10:47:15.635Z,9.242263
2023-03-16T10:48:16.608Z,9.242273
2023-03-16T10:49:15.589Z,9.242274
2023-03-16T10:50:15.583Z,9.242222
2023-03-16T10:51:15.598Z,9.242300
2023-03-16T10:52:15.572Z,9.242310
2023-03-16T10:53:15.578Z,9.242275
2023-03-16T10:54:15.569Z,9.242243
2023-03-16T10:55:15.541Z,9.242234
2023-03-16T10:56:15.542Z,9.242218
2023-03-16T10:57:15.534Z,9.242250
2023-03-16T10:58:15.538Z,9.242275
2023-03-16T10:59:15.519Z,9.242198
2023-03-16T11:00:15.513Z,9.242202
2023-03-16T11:01:15.526Z,9.242204
2023-03-16T11:02:15.489Z,9.242203
2023-03-16T11:03:15.514Z,9.242239
2023-03-16T11:04:15.608Z,9.242178
2023-03-16T11:05:15.482Z,9.242215
2023-03-16T11:06:15.463Z,9.242224
2023-03-16T11:07:15.455Z,9.242266
2023-03-16T11:08:15.477Z,9.242309
2023-03-16T11:09:15.443Z,9.242353
2023-03-16T11:10:15.446Z,9.242390
2023-03-16T11:11:15.454Z,9.242376
2023-03-16T11:12:15.513Z,9.242420
2023-03-16T11:13:15.469Z,9.242363
2023-03-16T11:14:15.427Z,9.242328
2023-03-16T11:15:29.392Z,9.242352
2023-03-16T11:16:17.563Z,9.242318
2023-03-16T11:17:15.381Z,9.242292
2023-03-16T11:18:15.420Z,9.242289
2023-03-16T11:19:15.373Z,9.242335
2023-03-16T11:20:15.377Z,9.242397
2023-03-16T11:21:15.365Z,9.242372
2023-03-16T11:22:15.355Z,9.242437
2023-03-16T11:23:15.386Z,9.242393
2023-03-16T11:24:15.351Z,9.242366
2023-03-16T11:25:15.343Z,9.242328
2023-03-16T11:26:15.342Z,9.242307
2023-03-16T11:27:15.467Z,9.242417
2023-03-16T11:28:15.335Z,9.242392
2023-03-16T11:29:15.316Z,9.242414
2023-03-16T11:30:15.312Z,9.242398
2023-03-16T11:31:15.377Z,9.242428
2023-03-16T11:32:15.447Z,9.242440
2023-03-16T11:33:16.328Z,9.242474
2023-03-16T11:34:15.281Z,9.242504
2023-03-16T11:35:15.281Z,9.242487
2023-03-16T11:36:15.286Z,9.242459
2023-03-16T11:37:15.260Z,9.242427
2023-03-16T11:38:15.278Z,9.242343
2023-03-16T11:39:15.244Z,9.242389
2023-03-16T11:40:15.241Z,9.242319
2023-03-16T11:41:15.220Z,9.242335
2023-03-16T11:42:15.240Z,9.242405
2023-03-16T11:43:15.240Z,9.242365
2023-03-16T11:44:15.209Z,9.242414